METAR Data
IDs: Format: Raw Decoded Include TAF

Data at: 2124 UTC 20 Nov 2018

KGZN 202100Z AUTO 07006KT 10SM CLR 14/M01 A3030 RMK AO2
KGZN 202040Z AUTO 10005KT 10SM CLR 13/M01 A3031 RMK AO2
KGZN 202020Z AUTO VRB06KT 10SM CLR 13/M01 A3031 RMK AO2
KGZN 202000Z AUTO 09004G10KT 10SM CLR 13/M01 A3032 RMK AO2
KGZN 201940Z AUTO 11004G10KT 10SM CLR 13/M01 A3034 RMK AO2
KGZN 201920Z AUTO 10009KT 020V140 10SM CLR 13/M01 A3035 RMK AO2
KGZN 201900Z AUTO 06007KT 10SM CLR 13/M01 A3036 RMK AO2
KGZN 201840Z AUTO VRB04G10KT 10SM CLR 12/M01 A3037 RMK AO2
KGZN 201820Z AUTO 05008KT 020V090 10SM CLR 12/M00 A3038 RMK AO2
KGZN 201800Z AUTO 11005KT 10SM CLR 11/M00 A3039 RMK AO2
KGZN 201740Z AUTO 12007KT 10SM CLR 11/00 A3040 RMK AO2
KGZN 201720Z AUTO VRB04KT 10SM CLR 10/00 A3041 RMK AO2
KGZN 201700Z AUTO 08007KT 050V110 10SM CLR 10/00 A3041 RMK AO2
KGZN 201640Z AUTO 10006KT 10SM CLR 09/01 A3041 RMK AO2
KGZN 201620Z AUTO VRB06KT 10SM CLR 08/00 A3041 RMK AO2
KGZN 201600Z AUTO 06008G13KT 10SM CLR 08/00 A3041 RMK AO2
KGZN 201540Z AUTO 05006KT 10SM CLR 07/01 A3040 RMK AO2
KGZN 201520Z AUTO 06008KT 10SM CLR 06/01 A3040 RMK AO2
KGZN 201500Z AUTO 5/41666705KT 10SM CLR 05/02 A3039 RMK AO2
KGZN 201440Z AUTO 01005KT 10SM CLR 04/01 A3039 RMK AO2
KGZN 201420Z AUTO 36004KT 10SM CLR 03/01 A3038 RMK AO2
KGZN 201400Z AUTO 35004KT 10SM CLR 02/00 A3037 RMK AO2
KGZN 201340Z AUTO 01005KT 10SM CLR 01/M00 A3036 RMK AO2
KGZN 201320Z AUTO 36004KT 10SM CLR 01/M00 A3036 RMK AO2
KGZN 201300Z AUTO 01006KT 10SM CLR 01/00 A3035 RMK AO2
KGZN 201240Z AUTO 35005KT 10SM CLR 01/M00 A3035 RMK AO2
KGZN 201220Z AUTO 35005KT 10SM CLR 01/00 A3035 RMK AO2
KGZN 201200Z AUTO 34004KT 10SM CLR 01/00 A3035 RMK AO2
KGZN 201140Z AUTO 35005KT 10SM CLR 01/00 A3034 RMK AO2
KGZN 201120Z AUTO 33005KT 10SM CLR 01/00 A3033 RMK AO2
KGZN 201100Z AUTO 33005KT 10SM CLR 01/00 A3033 RMK AO2
KGZN 201040Z AUTO 32005KT 10SM CLR 01/01 A3032 RMK AO2
KGZN 201020Z AUTO 32005KT 10SM CLR 02/01 A3032 RMK AO2
KGZN 201000Z AUTO 32004KT 10SM CLR 01/01 A3031 RMK AO2
KGZN 200940Z AUTO 32004KT 10SM CLR 02/01 A3031 RMK AO2
KGZN 200920Z AUTO 31004KT 10SM CLR 02/01 A3031 RMK AO2
KGZN 200900Z AUTO 31004KT 10SM CLR 03/01 A3031 RMK AO2
KGZN 200840Z AUTO 33004KT 10SM CLR 03/01 A3030 RMK AO2
KGZN 200820Z AUTO 32004KT 10SM CLR 03/02 A3031 RMK AO2
KGZN 200800Z AUTO 31004KT 10SM CLR 03/01 A3030 RMK AO2
KGZN 200740Z AUTO 32005KT 10SM CLR 03/01 A3030 RMK AO2
KGZN 200720Z AUTO 31004KT 10SM CLR 03/01 A3030 RMK AO2
KGZN 200700Z AUTO 32004KT 10SM CLR 04/02 A3029 RMK AO2
KGZN 200640Z AUTO 32004KT 10SM CLR 04/01 A3029 RMK AO2
KGZN 200620Z AUTO 32004KT 10SM CLR 04/01 A3029 RMK AO2
KGZN 200600Z AUTO 4/00000004KT 10SM CLR 05/01 A3029 RMK AO2
KGZN 200540Z AUTO 35004KT 10SM CLR 05/01 A3028 RMK AO2
KGZN 200520Z AUTO 01004KT 10SM CLR 05/01 A3028 RMK AO2
KGZN 200500Z AUTO 36003KT 10SM CLR 05/02 A3028 RMK AO2
KGZN 200440Z AUTO 01003KT 10SM CLR 06/02 A3027 RMK AO2
KGZN 200420Z AUTO 01004KT 10SM CLR 06/02 A3027 RMK AO2
KGZN 200400Z AUTO 01004KT 10SM CLR 07/02 A3026 RMK AO2
KGZN 200340Z AUTO 02004KT 10SM CLR 07/02 A3025 RMK AO2
KGZN 200320Z AUTO 00000KT 10SM CLR 07/02 A3025 RMK AO2
KGZN 200300Z AUTO 00000KT 10SM CLR 08/02 A3025 RMK AO2
KGZN 200240Z AUTO 00000KT 10SM CLR 08/02 A3024 RMK AO2
KGZN 200220Z AUTO 00000KT 10SM CLR 09/02 A3023 RMK AO2
KGZN 200200Z AUTO 00000KT 10SM CLR 08/02 A3023 RMK AO2
KGZN 200140Z AUTO 00000KT 10SM CLR 09/02 A3022 RMK AO2
KGZN 200120Z AUTO 00000KT 10SM CLR 09/02 A3022 RMK AO2
KGZN 200100Z AUTO 00000KT 10SM CLR 09/02 A3021 RMK AO2
KGZN 200040Z AUTO 00000KT 10SM CLR 09/02 A3020 RMK AO2
KGZN 200020Z AUTO 05003KT 10SM CLR 09/02 A3019 RMK AO2
KGZN 200000Z AUTO 05003KT 10SM CLR 10/02 A3019 RMK AO2
KGZN 192340Z AUTO 04004KT 10SM CLR 10/02 A3018 RMK AO2
KGZN 192320Z AUTO 03005KT 10SM CLR 11/02 A3018 RMK AO2
KGZN 192300Z AUTO 03004KT 10SM CLR 12/02 A3017 RMK AO2
KGZN 192240Z AUTO 05007KT 10SM CLR 13/02 A3016 RMK AO2
KGZN 192220Z AUTO 04007KT 010V070 10SM CLR 13/02 A3015 RMK AO2
KGZN 192200Z AUTO VRB03KT 10SM CLR 13/02 A3015 RMK AO2
KGZN 192140Z AUTO 04004KT 10SM CLR 13/02 A3015 RMK AO2
KGZN 192120Z AUTO 00000KT 10SM CLR 13/02 A3015 RMK AO2
KGZN 192100Z AUTO VRB05KT 10SM CLR 13/02 A3015 RMK AO2
KGZN 192040Z AUTO VRB03G10KT 10SM FEW026 13/02 A3015 RMK AO2
KGZN 192020Z AUTO 31005KT 10SM BKN026 13/03 A3016 RMK AO2
KGZN 192000Z AUTO VRB04KT 10SM BKN027 12/02 A3016 RMK AO2
KGZN 191940Z AUTO 33007KT 10SM FEW027 13/02 A3016 RMK AO2
KGZN 191920Z AUTO 00000KT 10SM CLR 12/02 A3017 RMK AO2
KGZN 191900Z AUTO 00000KT 10SM CLR 11/01 A3018 RMK AO2
KGZN 191840Z AUTO 04004KT 10SM CLR 11/02 A3019 RMK AO2
KGZN 191820Z AUTO VRB03KT 10SM SCT033 10/02 A3020 RMK AO2
KGZN 191800Z AUTO 32004KT 10SM BKN033 10/01 A3021 RMK AO2
KGZN 191740Z AUTO 30006KT 10SM OVC033 10/01 A3022 RMK AO2
KGZN 191720Z AUTO 00000KT 10SM SCT022 OVC033 09/00 A3023 RMK AO2
KGZN 191700Z AUTO 00000KT 10SM OVC021 08/M00 A3024 RMK AO2
KGZN 191640Z AUTO 00000KT 10SM OVC020 07/M00 A3024 RMK AO2
KGZN 191620Z AUTO 00000KT 10SM OVC019 07/M00 A3024 RMK AO2
KGZN 191600Z AUTO 00000KT 10SM OVC019 06/M00 A3024 RMK AO2
KGZN 191540Z AUTO 00000KT 10SM OVC019 06/M01 A3024 RMK AO2
KGZN 191520Z AUTO 00000KT 10SM OVC019 05/M00 A3023 RMK AO2
KGZN 191500Z AUTO 00000KT 10SM OVC020 05/M00 A3023 RMK AO2
KGZN 191440Z AUTO 00000KT 10SM OVC021 05/M00 A3022 RMK AO2
KGZN 191420Z AUTO 00000KT 10SM OVC021 05/M00 A3022 RMK AO2
KGZN 191400Z AUTO 00000KT 10SM OVC021 04/M01 A3022 RMK AO2
KGZN 191340Z AUTO 00000KT 10SM OVC021 04/M00 A3021 RMK AO2
KGZN 191320Z AUTO 00000KT 10SM OVC022 04/M00 A3020 RMK AO2
KGZN 191300Z AUTO 00000KT 10SM OVC022 04/M00 A3020 RMK AO2
KGZN 191240Z AUTO 00000KT 10SM BKN023 OVC043 03/M00 A3019 RMK AO2
KGZN 191220Z AUTO 36003KT 10SM BKN023 OVC032 04/M00 A3018 RMK AO2
KGZN 191200Z AUTO 36004KT 10SM BKN024 OVC032 03/M00 A3018 RMK AO2
KGZN 191140Z AUTO 00000KT 10SM OVC023 03/M00 A3018 RMK AO2
KGZN 191120Z AUTO 00000KT 10SM OVC022 03/M01 A3018 RMK AO2
KGZN 191100Z AUTO 00000KT 10SM OVC022 03/M00 A3018 RMK AO2
KGZN 191040Z AUTO 00000KT 10SM OVC023 03/M00 A3019 RMK AO2
KGZN 191020Z AUTO 00000KT 10SM OVC024 03/00 A3019 RMK AO2
KGZN 191000Z AUTO 00000KT 10SM OVC024 03/00 A3019 RMK AO2
KGZN 190940Z AUTO 00000KT 10SM OVC023 03/M00 A3019 RMK AO2